createdAt,value
2022-10-10T00:02:18.950Z,13.52
2022-10-10T00:05:00.005Z,13.27
2022-10-10T00:07:39.959Z,13.30
2022-10-10T00:10:21.014Z,13.77
2022-10-10T00:13:00.964Z,11.52
2022-10-10T00:15:49.117Z,13.27
2022-10-10T00:18:43.940Z,10.68
2022-10-10T00:21:37.954Z,12.70
2022-10-10T00:24:24.945Z,11.95
2022-10-10T00:26:59.025Z,9.52
2022-10-10T00:29:45.954Z,10.60
2022-10-10T00:32:26.984Z,9.15
2022-10-10T00:35:20.936Z,8.48
2022-10-10T00:40:42.037Z,9.10
2022-10-10T00:43:22.959Z,8.50
2022-10-10T00:46:02.985Z,7.88
2022-10-10T00:48:37.024Z,8.15
2022-10-10T00:51:24.933Z,7.55
2022-10-10T00:54:10.958Z,8.93
2022-10-10T00:57:06.934Z,7.80
2022-10-10T00:59:54.970Z,7.60
2022-10-10T01:02:29.028Z,6.68
2022-10-10T01:05:16.958Z,6.78
2022-10-10T01:07:52.126Z,7.72
2022-10-10T01:10:42.946Z,8.27
2022-10-10T01:13:23.025Z,7.05
2022-10-10T01:16:17.956Z,8.15
2022-10-10T01:19:07.034Z,7.55
2022-10-10T01:22:14.982Z,8.23
2022-10-10T01:24:52.038Z,9.23
2022-10-10T01:30:18.769Z,8.63
2022-10-10T01:33:11.989Z,8.55
2022-10-10T01:35:46.020Z,8.32
2022-10-10T01:38:48.994Z,10.45
2022-10-10T01:41:34.068Z,10.23
2022-10-10T01:44:21.983Z,8.48
2022-10-10T01:47:02.964Z,8.52
2022-10-10T01:49:58.948Z,8.65
2022-10-10T01:52:52.160Z,9.18
2022-10-10T01:55:48.021Z,9.32
2022-10-10T01:58:41.969Z,9.13
2022-10-10T02:01:25.023Z,10.00
2022-10-10T02:04:18.980Z,8.73
2022-10-10T02:06:59.045Z,8.70
2022-10-10T02:09:46.959Z,10.18
2022-10-10T02:12:21.056Z,10.05
2022-10-10T02:15:20.956Z,9.60
2022-10-10T02:17:56.055Z,8.90
2022-10-10T02:20:43.987Z,8.95
2022-10-10T02:23:20.079Z,9.20
2022-10-10T02:26:07.960Z,11.00
2022-10-10T02:28:47.021Z,10.43
2022-10-10T02:31:42.987Z,9.98
2022-10-10T02:34:19.034Z,9.15
2022-10-10T02:37:07.999Z,10.32
2022-10-10T02:39:44.061Z,10.43
2022-10-10T02:42:31.946Z,10.35
2022-10-10T02:45:06.051Z,9.45
2022-10-10T02:47:53.978Z,10.60
2022-10-10T02:50:35.006Z,11.70
2022-10-10T02:53:28.954Z,11.23
2022-10-10T02:58:49.982Z,10.55
2022-10-10T03:01:24.083Z,11.63
2022-10-10T03:04:11.977Z,11.05
2022-10-10T03:06:46.048Z,12.18
2022-10-10T03:09:32.976Z,11.38
2022-10-10T03:12:07.024Z,12.23
2022-10-10T03:14:54.954Z,13.50
2022-10-10T03:17:35.984Z,12.85
2022-10-10T03:20:29.970Z,11.60
2022-10-10T03:25:51.087Z,11.60
2022-10-10T03:28:39.105Z,12.38
2022-10-10T03:31:20.992Z,12.15
2022-10-10T03:34:14.950Z,12.60
2022-10-10T03:37:02.984Z,12.15
2022-10-10T03:39:37.022Z,11.30
2022-10-10T03:42:23.994Z,13.80
2022-10-10T03:44:58.053Z,12.68
2022-10-10T03:47:44.991Z,13.35
2022-10-10T03:50:19.091Z,11.52
2022-10-10T03:53:05.973Z,12.30
2022-10-10T03:55:40.379Z,12.00
2022-10-10T03:58:26.978Z,12.13
2022-10-10T04:01:05.195Z,12.35
2022-10-10T04:03:52.994Z,11.48
2022-10-10T04:06:34.969Z,13.00
2022-10-10T04:09:21.979Z,12.95
2022-10-10T04:11:56.091Z,14.45
2022-10-10T04:14:42.990Z,13.77
2022-10-10T04:17:17.062Z,14.25
2022-10-10T04:20:03.963Z,14.00
2022-10-10T04:22:52.200Z,13.30
2022-10-10T04:25:33.982Z,13.68
2022-10-10T04:28:15.158Z,13.82
2022-10-10T04:30:55.996Z,13.40
2022-10-10T04:33:37.349Z,11.88
2022-10-10T04:36:18.986Z,13.30
2022-10-10T04:39:00.038Z,13.90
2022-10-10T04:41:40.003Z,12.68
2022-10-10T04:44:33.981Z,13.40
2022-10-10T04:47:27.979Z,12.80
2022-10-10T04:52:49.440Z,11.30
2022-10-10T04:55:30.022Z,13.95
2022-10-10T04:58:09.962Z,12.65
2022-10-10T05:00:45.376Z,12.93
2022-10-10T05:03:32.984Z,13.48
2022-10-10T05:06:07.084Z,11.50
2022-10-10T05:08:53.985Z,14.85
2022-10-10T05:11:28.314Z,14.40
2022-10-10T05:14:15.998Z,17.20
2022-10-10T05:16:50.069Z,18.48
2022-10-10T05:19:36.989Z,19.70
2022-10-10T05:22:11.073Z,20.77
2022-10-10T05:24:58.997Z,18.65
2022-10-10T05:27:40.139Z,21.63
2022-10-10T05:30:21.020Z,18.40
2022-10-10T05:33:02.072Z,17.75
2022-10-10T05:35:42.992Z,17.30
2022-10-10T05:38:24.090Z,17.85
2022-10-10T05:41:12.006Z,17.38
2022-10-10T05:43:46.047Z,18.40
2022-10-10T05:46:34.020Z,15.73
2022-10-10T05:49:08.044Z,17.02
2022-10-10T05:51:55.018Z,17.55
2022-10-10T05:54:35.997Z,17.00
2022-10-10T05:57:29.963Z,18.98
2022-10-10T06:02:51.462Z,14.95
2022-10-10T06:05:32.030Z,17.10
2022-10-10T06:08:19.005Z,17.70
2022-10-10T06:11:23.017Z,15.88
2022-10-10T06:14:10.029Z,16.33
2022-10-10T06:16:45.398Z,17.95
2022-10-10T06:19:39.053Z,17.65
2022-10-10T06:25:15.197Z,15.13
2022-10-10T06:28:04.049Z,16.20
2022-10-10T06:30:51.113Z,15.85
2022-10-10T06:33:31.015Z,16.55
2022-10-10T06:36:13.078Z,16.20
2022-10-10T06:38:54.041Z,15.93
2022-10-10T06:41:35.102Z,15.65
2022-10-10T06:44:15.033Z,17.85
2022-10-10T06:47:03.049Z,18.83
2022-10-10T06:49:56.992Z,17.98
2022-10-10T06:52:44.043Z,19.00
2022-10-10T06:55:18.052Z,18.13
2022-10-10T06:58:06.036Z,19.00
2022-10-10T07:00:40.031Z,18.65
2022-10-10T07:03:28.089Z,19.02
2022-10-10T07:06:16.021Z,18.60
2022-10-10T07:09:09.976Z,17.45
2022-10-10T07:11:57.080Z,16.90
2022-10-10T07:14:31.076Z,17.33
2022-10-10T07:17:18.033Z,16.13
2022-10-10T07:19:52.092Z,15.52
2022-10-10T07:22:40.038Z,15.43
2022-10-10T07:25:14.080Z,17.17
2022-10-10T07:28:00.988Z,14.55
2022-10-10T07:30:42.034Z,15.75
2022-10-10T07:33:29.078Z,14.90
2022-10-10T07:36:11.040Z,12.52
2022-10-10T07:38:51.968Z,12.15
2022-10-10T07:41:33.020Z,9.60
2022-10-10T07:44:13.097Z,9.73
2022-10-10T07:46:54.011Z,8.05
2022-10-10T07:49:34.090Z,8.35
2022-10-10T07:52:15.080Z,8.32
2022-10-10T07:55:09.023Z,7.93
2022-10-10T07:57:58.291Z,7.28
2022-10-10T08:00:40.009Z,8.05
2022-10-10T08:03:27.071Z,7.05
2022-10-10T08:06:17.036Z,7.35
2022-10-10T08:08:52.206Z,6.78
2022-10-10T08:11:40.028Z,7.13
2022-10-10T08:14:33.982Z,6.47
2022-10-10T08:17:22.016Z,6.45
2022-10-10T08:19:56.078Z,7.15
2022-10-10T08:22:43.054Z,6.35
2022-10-10T08:25:24.039Z,5.72
2022-10-10T08:28:11.091Z,6.40
2022-10-10T08:30:55.019Z,5.43
2022-10-10T08:33:43.031Z,5.65
2022-10-10T08:36:21.093Z,5.30
2022-10-10T08:39:08.032Z,4.78
2022-10-10T08:41:53.042Z,5.35
2022-10-10T08:44:59.039Z,4.90
2022-10-10T08:47:56.060Z,4.43
2022-10-10T08:50:55.033Z,4.57
2022-10-10T08:53:46.031Z,5.13
2022-10-10T08:56:32.068Z,5.45
2022-10-10T08:59:32.029Z,4.93
2022-10-10T09:02:17.784Z,4.90
2022-10-10T09:05:06.054Z,4.60
2022-10-10T09:07:52.092Z,6.75
2022-10-10T09:10:54.158Z,4.30
2022-10-10T09:13:52.070Z,4.13
2022-10-10T09:17:19.022Z,4.63
2022-10-10T09:20:06.048Z,3.88
2022-10-10T09:22:57.053Z,3.72
2022-10-10T09:25:57.039Z,3.85
2022-10-10T09:28:56.125Z,3.55
2022-10-10T09:31:46.023Z,3.83
2022-10-10T09:34:53.067Z,3.40
2022-10-10T09:37:48.103Z,3.53
2022-10-10T09:40:47.065Z,3.05
2022-10-10T09:43:21.848Z,3.90
2022-10-10T09:46:09.040Z,3.55
2022-10-10T09:49:03.045Z,3.90
2022-10-10T09:51:52.219Z,3.22
2022-10-10T09:54:27.125Z,3.35
2022-10-10T09:57:19.056Z,3.47
2022-10-10T09:59:54.216Z,3.40
2022-10-10T10:02:41.043Z,3.13
2022-10-10T10:05:25.116Z,3.33
2022-10-10T10:08:13.086Z,3.30
2022-10-10T10:10:47.215Z,3.42
2022-10-10T10:13:43.076Z,3.13
2022-10-10T10:16:26.056Z,3.35
2022-10-10T10:19:48.055Z,2.67
2022-10-10T10:22:40.078Z,3.20
2022-10-10T10:25:46.115Z,3.08
2022-10-10T10:28:34.100Z,3.38
2022-10-10T10:31:08.122Z,3.22
2022-10-10T10:34:04.061Z,3.03
2022-10-10T10:36:41.142Z,3.35
2022-10-10T10:40:06.057Z,2.90
2022-10-10T10:42:40.142Z,3.35
2022-10-10T10:45:27.056Z,3.50
2022-10-10T10:48:08.068Z,3.60
2022-10-10T10:51:05.104Z,2.92
2022-10-10T10:54:06.066Z,2.80
2022-10-10T10:56:49.146Z,3.05
2022-10-10T11:00:25.876Z,3.42
2022-10-10T11:02:57.532Z,2.80
2022-10-10T11:06:06.102Z,3.28
2022-10-10T11:08:58.118Z,2.78
2022-10-10T11:11:52.071Z,3.40
2022-10-10T11:14:56.102Z,3.55
2022-10-10T11:17:44.075Z,3.70
2022-10-10T11:20:40.089Z,3.53
2022-10-10T11:23:30.065Z,3.13
2022-10-10T11:26:32.060Z,3.22
2022-10-10T11:29:26.069Z,3.55
2022-10-10T11:32:11.099Z,3.47
2022-10-10T11:35:05.055Z,3.53
2022-10-10T11:38:01.084Z,4.15
2022-10-10T11:41:00.145Z,3.40
2022-10-10T11:43:46.093Z,4.13
2022-10-10T11:47:10.062Z,3.60
2022-10-10T11:50:00.103Z,3.28
2022-10-10T11:52:56.115Z,4.10
2022-10-10T11:55:50.431Z,3.92
2022-10-10T11:58:44.080Z,3.47
2022-10-10T12:01:50.252Z,3.60
2022-10-10T12:04:31.089Z,3.65
2022-10-10T12:07:19.072Z,3.70
2022-10-10T12:10:02.232Z,3.55
2022-10-10T12:12:53.088Z,3.50
2022-10-10T12:15:49.882Z,3.38
2022-10-10T12:19:06.085Z,2.72
2022-10-10T12:21:58.176Z,3.00
2022-10-10T12:25:17.085Z,3.47
2022-10-10T12:28:01.069Z,3.60
2022-10-10T12:31:30.094Z,3.53
2022-10-10T12:34:36.546Z,3.72
2022-10-10T12:37:25.126Z,3.35
2022-10-10T12:40:07.666Z,3.22
2022-10-10T12:43:35.088Z,3.45
2022-10-10T12:46:14.769Z,3.58
2022-10-10T12:49:16.115Z,3.72
2022-10-10T12:52:10.102Z,3.35
2022-10-10T12:55:02.168Z,3.83
2022-10-10T12:57:42.969Z,3.13
2022-10-10T13:00:36.089Z,3.33
2022-10-10T13:03:17.126Z,3.28
2022-10-10T13:06:06.090Z,3.53
2022-10-10T13:08:41.552Z,3.45
2022-10-10T13:11:29.101Z,2.80
2022-10-10T13:14:15.102Z,4.28
2022-10-10T13:16:56.213Z,3.05
2022-10-10T13:19:48.190Z,3.75
2022-10-10T13:22:29.096Z,3.60
2022-10-10T13:25:24.104Z,3.33
2022-10-10T13:28:20.141Z,3.22
2022-10-10T13:31:01.499Z,4.03
2022-10-10T13:33:42.159Z,3.03
2022-10-10T13:36:35.227Z,3.33
2022-10-10T13:39:22.105Z,3.20
2022-10-10T13:42:03.199Z,3.60
2022-10-10T13:44:59.099Z,3.50
2022-10-10T13:48:31.100Z,3.30
2022-10-10T13:51:13.125Z,3.17
2022-10-10T13:54:08.126Z,3.08
2022-10-10T13:56:41.779Z,3.40
2022-10-10T13:59:29.099Z,3.55
2022-10-10T14:02:11.194Z,4.13
2022-10-10T14:05:03.110Z,3.35
2022-10-10T14:07:55.138Z,3.67
2022-10-10T14:10:44.148Z,3.95
2022-10-10T14:13:38.131Z,5.00
2022-10-10T14:16:25.112Z,4.45
2022-10-10T14:19:06.097Z,4.53
2022-10-10T14:22:00.092Z,4.93
2022-10-10T14:24:47.105Z,4.05
2022-10-10T14:27:37.082Z,4.72
2022-10-10T14:30:31.097Z,4.20
2022-10-10T14:35:58.257Z,3.95
2022-10-10T14:38:45.130Z,4.25
2022-10-10T14:41:26.156Z,4.78
2022-10-10T14:44:20.095Z,4.13
2022-10-10T14:47:07.123Z,3.88
2022-10-10T14:49:41.168Z,4.05
2022-10-10T14:52:28.132Z,4.50
2022-10-10T14:55:02.185Z,4.15
2022-10-10T14:57:49.112Z,4.95
2022-10-10T15:00:43.146Z,3.97
2022-10-10T15:03:30.188Z,4.75
2022-10-10T15:06:04.218Z,4.40
2022-10-10T15:08:52.134Z,4.78
2022-10-10T15:11:26.216Z,5.20
2022-10-10T15:14:14.140Z,4.65
2022-10-10T15:16:48.181Z,4.72
2022-10-10T15:19:35.158Z,5.95
2022-10-10T15:22:09.171Z,5.25
2022-10-10T15:24:56.154Z,5.43
2022-10-10T15:27:30.258Z,7.82
2022-10-10T15:30:18.138Z,5.07
2022-10-10T15:32:52.252Z,5.68
2022-10-10T15:36:03.863Z,5.30
2022-10-10T15:38:42.162Z,5.32
2022-10-10T15:41:36.190Z,5.70
2022-10-10T15:44:25.157Z,4.97
2022-10-10T15:46:59.186Z,5.55
2022-10-10T15:49:46.161Z,5.22
2022-10-10T15:52:23.056Z,7.65
2022-10-10T15:55:11.129Z,7.35
2022-10-10T15:57:52.239Z,6.72
2022-10-10T16:00:33.249Z,5.82
2022-10-10T16:03:15.189Z,6.95
2022-10-10T16:05:55.142Z,6.05
2022-10-10T16:08:43.116Z,7.28
2022-10-10T16:11:26.182Z,7.47
2022-10-10T16:14:07.206Z,8.38
2022-10-10T16:16:47.171Z,6.88
2022-10-10T16:19:35.148Z,7.97
2022-10-10T16:22:09.079Z,7.68
2022-10-10T16:25:21.245Z,9.10
2022-10-10T16:27:52.634Z,7.70
2022-10-10T16:30:40.153Z,7.88
2022-10-10T16:33:14.059Z,7.22
2022-10-10T16:36:02.143Z,6.70
2022-10-10T16:38:36.146Z,6.43
2022-10-10T16:41:46.516Z,7.68
2022-10-10T16:44:19.093Z,7.25
2022-10-10T16:47:07.129Z,7.00
2022-10-10T16:49:40.816Z,7.03
2022-10-10T16:52:28.155Z,6.97
2022-10-10T16:55:02.086Z,7.40
2022-10-10T16:57:50.174Z,7.40
2022-10-10T17:00:30.161Z,7.43
2022-10-10T17:03:11.225Z,8.43
2022-10-10T17:05:52.158Z,8.60
2022-10-10T17:08:40.174Z,8.85
2022-10-10T17:11:17.798Z,8.32
2022-10-10T17:19:47.133Z,9.85
2022-10-10T17:22:28.171Z,9.10
2022-10-10T17:25:09.205Z,10.75
2022-10-10T17:27:50.153Z,11.45
2022-10-10T17:30:31.227Z,12.43
2022-10-10T17:33:11.155Z,10.57
2022-10-10T17:35:53.227Z,10.55
2022-10-10T17:38:40.040Z,11.52
2022-10-10T17:41:29.193Z,10.25
2022-10-10T17:44:09.170Z,8.70
2022-10-10T17:46:51.138Z,8.35
2022-10-10T17:49:34.161Z,9.32
2022-10-10T17:52:08.065Z,9.13
2022-10-10T17:54:56.170Z,9.43
2022-10-10T17:57:30.434Z,9.00
2022-10-10T18:00:19.169Z,8.73
2022-10-10T18:02:53.119Z,9.70
2022-10-10T18:05:41.170Z,10.68
2022-10-10T18:08:22.177Z,9.18
2022-10-10T18:11:03.529Z,8.45
2022-10-10T18:13:51.220Z,7.43
2022-10-10T18:16:34.350Z,7.85
2022-10-10T18:19:28.157Z,9.68
2022-10-10T18:22:16.170Z,9.70
2022-10-10T18:24:57.171Z,10.45
2022-10-10T18:27:51.185Z,11.15
2022-10-10T18:30:38.207Z,10.85
2022-10-10T18:33:19.175Z,10.45
2022-10-10T18:36:06.183Z,10.32
2022-10-10T18:38:47.176Z,7.93
2022-10-10T18:41:40.195Z,7.35
2022-10-10T18:44:25.169Z,7.25
2022-10-10T18:47:13.194Z,7.80
2022-10-10T18:49:54.199Z,7.45
2022-10-10T18:52:42.194Z,7.15
2022-10-10T18:55:18.195Z,7.35
2022-10-10T18:58:06.182Z,7.27
2022-10-10T19:00:40.247Z,7.95
2022-10-10T19:03:27.193Z,5.97
2022-10-10T19:06:09.231Z,6.28
2022-10-10T19:08:50.185Z,4.90
2022-10-10T19:11:32.258Z,5.38
2022-10-10T19:14:14.197Z,5.28
2022-10-10T19:17:02.197Z,6.00
2022-10-10T19:19:37.122Z,5.40
2022-10-10T19:22:25.164Z,5.75
2022-10-10T19:24:59.076Z,5.55
2022-10-10T19:27:47.155Z,6.40
2022-10-10T19:30:21.139Z,8.40
2022-10-10T19:33:09.214Z,7.65
2022-10-10T19:35:53.174Z,6.35
2022-10-10T19:38:41.183Z,7.50
2022-10-10T19:41:37.178Z,5.15
2022-10-10T19:44:24.176Z,4.15
2022-10-10T19:47:07.202Z,3.92
2022-10-10T19:49:54.170Z,3.70
2022-10-10T19:52:35.187Z,4.30
2022-10-10T19:55:25.193Z,4.10
2022-10-10T19:58:06.191Z,4.25
2022-10-10T20:00:53.186Z,4.03
2022-10-10T20:03:34.188Z,5.60
2022-10-10T20:06:30.181Z,4.22
2022-10-10T20:09:18.192Z,4.13
2022-10-10T20:11:59.188Z,4.38
2022-10-10T20:14:53.181Z,3.92
2022-10-10T20:17:40.202Z,5.57
2022-10-10T20:20:21.205Z,4.60
2022-10-10T20:23:16.174Z,4.70
2022-10-10T20:26:04.356Z,4.80
2022-10-10T20:28:39.348Z,4.47
2022-10-10T20:31:32.226Z,3.88
2022-10-10T20:34:14.209Z,4.53
2022-10-10T20:37:08.189Z,4.28
2022-10-10T20:39:55.187Z,4.05
2022-10-10T20:42:29.293Z,3.53
2022-10-10T20:45:17.223Z,3.60
2022-10-10T20:47:51.254Z,3.63
2022-10-10T20:50:41.197Z,3.85
2022-10-10T20:53:21.258Z,3.92
2022-10-10T20:56:02.507Z,4.20
2022-10-10T20:58:56.170Z,3.67
2022-10-10T21:01:44.270Z,4.57
2022-10-10T21:04:25.204Z,3.80
2022-10-10T21:07:12.235Z,4.13
2022-10-10T21:09:46.286Z,4.65
2022-10-10T21:12:33.210Z,4.25
2022-10-10T21:15:14.181Z,5.28
2022-10-10T21:18:08.189Z,4.15
2022-10-10T21:23:29.188Z,3.75
2022-10-10T21:26:03.439Z,4.55
2022-10-10T21:28:51.267Z,3.75
2022-10-10T21:31:35.227Z,3.97
2022-10-10T21:34:29.180Z,3.65
2022-10-10T21:37:16.216Z,4.28
2022-10-10T21:39:57.201Z,4.05
2022-10-10T21:42:51.188Z,4.60
2022-10-10T21:45:41.207Z,4.80
2022-10-10T21:48:15.290Z,4.40
2022-10-10T21:51:06.220Z,3.97
2022-10-10T21:53:47.190Z,4.30
2022-10-10T21:56:41.219Z,4.18
2022-10-10T22:02:09.279Z,3.80
2022-10-10T22:04:49.194Z,4.65
2022-10-10T22:07:30.239Z,4.88
2022-10-10T22:10:14.227Z,3.65
2022-10-10T22:13:02.230Z,6.30
2022-10-10T22:15:36.137Z,7.68
2022-10-10T22:18:24.217Z,6.53
2022-10-10T22:20:58.537Z,6.45
2022-10-10T22:23:46.243Z,4.85
2022-10-10T22:26:26.195Z,4.30
2022-10-10T22:29:14.218Z,4.78
2022-10-10T22:31:48.147Z,4.47
2022-10-10T22:34:36.229Z,4.00
2022-10-10T22:37:10.157Z,4.97
2022-10-10T22:39:58.204Z,4.38
2022-10-10T22:42:38.208Z,4.65
2022-10-10T22:45:19.326Z,4.68
2022-10-10T22:47:59.228Z,4.82
2022-10-10T22:50:40.285Z,5.53
2022-10-10T22:53:20.210Z,5.85
2022-10-10T22:56:01.496Z,5.15
2022-10-10T22:58:42.224Z,4.60
2022-10-10T23:01:25.331Z,4.43
2022-10-10T23:04:09.220Z,4.80
2022-10-10T23:06:50.282Z,4.85
2022-10-10T23:09:30.217Z,5.43
2022-10-10T23:12:11.356Z,5.05
2022-10-10T23:14:51.217Z,5.28
2022-10-10T23:17:32.297Z,4.78
2022-10-10T23:20:13.228Z,5.35
2022-10-10T23:22:54.293Z,5.15
2022-10-10T23:25:34.204Z,5.60
2022-10-10T23:28:15.361Z,5.10
2022-10-10T23:30:56.221Z,5.88
2022-10-10T23:33:37.395Z,4.85
2022-10-10T23:36:19.228Z,5.57
2022-10-10T23:39:00.274Z,5.95
2022-10-10T23:41:40.221Z,5.97
2022-10-10T23:44:21.286Z,5.60
2022-10-10T23:47:01.245Z,6.35
2022-10-10T23:49:49.222Z,5.25
2022-10-10T23:52:23.198Z,5.05
2022-10-10T23:55:11.236Z,5.57
2022-10-10T23:57:45.134Z,4.82
